Saint Catharines, Canada
Current Conditions -  °F | °C
As of 3:00 PM on Saturday 20 Dec 2014 (Local Time) from CYSN Reporting Station
Broken Clouds Broken Clouds  
Wind Chill: 27°   Ceiling: 25000
Heat Index: 32°   Visibility: 15mi
Dew Point: 23°   Wind: 5mph
Humidity: 69%   Direction: NA
Pressure: 30.26"   Gusts: NA
Location:  43.16°N, 79.25°W
Report Text: CYSN 202000Z VRB04KT 15SM FEW020 BKN250 M00/M05 A3026 RMK SC1CI6 SC TR SLP250
Loading
Personal Weather Stations






























Interactive Weather Map New forecast layout! Learn more

10-Day Weather Forecast

Advertisements
Track Severe Weather on mobile